7FL3 weather

Adams Ranch Airport
Fort Pierce, Florida, United States

Public forecast

Using degrees Fahrenheit for public forecast. Weather courtesy of forecast.io.

Closest aviation weather report (METAR) to Adams Ranch Airport

Closest report is St Lucie County International Airport, 11.9 nm (22.1 km) ENE. Retrieved 2019/10/23 20:53 UTC (58 minutes ago):

KFPR 232053Z 05009KT 010V080 10SM FEW019 BKN046 OVC065 28/23 A3001 RMK AO2 SLP162 60004 T02780228 50001

Closest aviation forecast (TAF) to Adams Ranch Airport

Closest forecast is St Lucie County International Airport, 11.9 nm (22.1 km) ENE. Retrieved 2019/10/23 18:48 UTC (3 hours ago):

TAF KFPR 231746Z 2318/2418 02011G17KT P6SM VCTS BKN035CB BKN050 BKN090 TEMPO 2318/2319 3SM TSRA BKN025CB FM232000 02010KT P6SM VCSH BKN035 BKN050 FM240100 05005KT P6SM VCSH SCT020 BKN035 FM241400 10011KT P6SM SCT025 BKN040